UTDT

Qurghonteppa International Airport

Kurgan-Tyube, Tajikistan
TAF UTDT 241800Z 2419/2504 VRB02MPS 6000 FEW066 SCT150
Issued Valid From Valid To
Sep-24 @ 18:00 UTC
(an hour ago)
Sep-24 @ 19:00 UTC
(27 minutes ago)
Sep-25 @ 04:00 UTC
(in 9 hours)
Sep-24 @ 19:00 to Sep-25 @ 04:00
TAF UTDT 241800Z 2419/2504 VRB02MPS 6000 FEW066 SCT150
Wind Visibility Clouds
Variable at 4 knots 6,003 meters
  • Few at 6,600' AGL
  • Scattered at 15,000' AGL
TAF UTDT 241800Z 2419/2504 VRB02MPS 6000 FEW066 SCT150
Issued Sep-24 @ 18:00 UTC
(an hour ago)
Valid From Sep-24 @ 19:00 UTC
(27 minutes ago)
Valid To Sep-25 @ 04:00 UTC
(in 9 hours)
Sep-24 @ 19:00 - Sep-25 @ 04:00
Wind Visibility
Variable at 4 knots 6,003 meters
Clouds
  • Few at 6,600' AGL
  • Scattered at 15,000' AGL